Flight Track Log - Related Links

Times and Time Zones

All times are in EDT time to prevent confusion due to time zone crossing. See the UAL4180 flight status page for this flight to view local times or setup timezone preferences in your user account.

Time Position Orientation Groundspeed Altitude Reporting Facility
EDT Latitude Longitude Course Direction KTS MPH feet Rate Location/Type
Wed 11:16:34 AM 39.3167 -94.7167 199° South 157 181 1,600  Level Kansas City TRACON
Wed 11:17:10 AM 39.3500 -94.7167 360° North 169 194 2,700 1,800 Climbing Kansas City TRACON
Wed 11:18:04 AM 39.3500 -94.7833 270° West 191 220 4,300 1,800 Climbing Kansas City TRACON
Wed 11:19:10 AM 39.3167 -94.8333 229° Southwest 227 261 6,300 1,700 Climbing Kansas City TRACON
Wed 11:20:00 AM 38.9375 -94.8431 195° South  Level FlightAware Approximate
Wed 11:20:04 AM 39.2667 -94.8667 207° Southwest 234 269 7,700  Level Kansas City TRACON
Wed 11:21:00 AM 38.8465 -94.8812 199° South  Level FlightAware Approximate
Wed 11:21:19 AM 39.1706 -94.8828 187° South 259 298 10,000  Level Kansas City Center
Wed 11:22:21 AM 39.0942 -94.9025 191° South 287 330 10,800 1,008 Climbing Kansas City Center
Wed 11:23:24 AM 38.9942 -94.9272 191° South 323 372 12,100 1,200 Climbing Kansas City Center
Wed 11:24:26 AM 38.9064 -94.9483 191° South 331 381 13,300 1,113 Climbing Kansas City Center
Wed 11:25:28 AM 38.8167 -94.9703 191° South 340 391 14,400 1,210 Climbing Kansas City Center
Wed 11:26:30 AM 38.7100 -94.9967 191° South 348 400 15,800 1,210 Climbing Kansas City Center
Wed 11:27:32 AM 38.6175 -95.0194 191° South 353 406 16,900 1,016 Climbing Kansas City Center
Wed 11:28:34 AM 38.5075 -95.0456 191° South 359 413 17,900 919 Climbing Kansas City Center
Wed 11:29:36 AM 38.4111 -95.0694 191° South 367 422 18,800 968 Climbing Kansas City Center
Wed 11:30:38 AM 38.2967 -95.0961 190° South 372 428 19,900 1,016 Climbing Kansas City Center
Wed 11:31:40 AM 38.1981 -95.1194 191° South 374 430 20,900 1,016 Climbing Kansas City Center
Wed 11:32:42 AM 38.0819 -95.1575 194° South 382 440 22,000 1,016 Climbing Kansas City Center
Wed 11:33:44 AM 37.9822 -95.1925 195° South 386 444 23,000 919 Climbing Kansas City Center
Wed 11:34:46 AM 37.8725 -95.2275 194° South 387 445 23,900 823 Climbing Kansas City Center
Wed 11:35:48 AM 37.7647 -95.2622 194° South 395 455 24,700 823 Climbing Kansas City Center
Wed 11:36:50 AM 37.6564 -95.2997 195° South 402 463 25,600 871 Climbing Kansas City Center
Wed 11:37:52 AM 37.5483 -95.3367 195° South 402 463 26,500 968 Climbing Kansas City Center
Wed 11:38:54 AM 37.4181 -95.3808 195° South 403 464 27,600 919 Climbing Kansas City Center
Wed 11:39:56 AM 37.3094 -95.4175 195° South 404 465 28,400 823 Climbing Kansas City Center
Wed 11:40:58 AM 37.2008 -95.4575 196° South 405 466 29,300 968 Climbing Kansas City Center
Wed 11:42:00 AM 37.0917 -95.4919 194° South 405 466 30,400 1,065 Climbing Kansas City Center
Wed 11:43:02 AM 36.9833 -95.5283 195° South 403 464 31,500 1,113 Climbing Kansas City Center
Wed 11:44:04 AM 36.8731 -95.5653 195° South 407 468 32,700 1,161 Climbing Kansas City Center
Wed 11:45:06 AM 36.7419 -95.6094 195° South 409 471 33,900 1,016 Climbing Kansas City Center
Wed 11:46:08 AM 36.6328 -95.6464 195° South 408 470 34,800 774 Climbing Kansas City Center
Wed 11:47:10 AM 36.5292 -95.6811 195° South 412 474 35,500 581 Climbing Kansas City Center
Wed 11:48:12 AM 36.4169 -95.7164 194° South 414 476 36,000 242 Climbing Kansas City Center
Wed 11:49:14 AM 36.2972 -95.7556 195° South 426 490 36,000  Level Kansas City Center
Wed 11:50:16 AM 36.1525 -95.8033 195° South 446 513 36,000  Level Kansas City Center
Wed 11:51:18 AM 36.0297 -95.8461 196° South 455 524 36,000  Level Kansas City Center
Wed 11:52:20 AM 35.9075 -95.8886 196° South 458 527 36,000  Level Kansas City Center
Wed 11:53:22 AM 35.7858 -95.9322 196° South 456 525 36,000  Level Kansas City Center
Wed 11:54:24 AM 35.6639 -95.9736 195° South 454 522 36,000  Level Kansas City Center
Wed 11:55:26 AM 35.5417 -96.0150 195° South 455 524 36,000  Level Kansas City Center
Wed 11:56:18 AM 35.4114 -96.0611 196° South 461 531 36,000  Level Fort Worth Center
Wed 11:57:18 AM 35.2889 -96.1039 196° South 461 531 36,000  Level Fort Worth Center
Wed 11:58:18 AM 35.1642 -96.1464 196° South 461 531 36,000  Level Fort Worth Center
Wed 11:59:18 AM 35.0375 -96.1889 195° South 461 531 36,000  Level Fort Worth Center
Wed 12:00:18 PM 34.9147 -96.2311 196° South 461 531 36,000  Level Fort Worth Center
Wed 12:01:18 PM 34.7900 -96.2758 196° South 461 531 36,000  Level Fort Worth Center
Wed 12:02:18 PM 34.6672 -96.3153 195° South 461 531 36,000  Level Fort Worth Center
Wed 12:03:18 PM 34.5403 -96.3597 196° South 461 531 36,000  Level Fort Worth Center
Wed 12:04:18 PM 34.4175 -96.4014 196° South 461 531 36,000  Level Fort Worth Center
Wed 12:05:18 PM 34.2947 -96.4431 196° South 461 531 36,000  Level Fort Worth Center
Wed 12:06:18 PM 34.1742 -96.4847 196° South 461 531 36,000  Level Fort Worth Center
Wed 12:07:18 PM 34.0492 -96.5261 195° South 456 525 36,000  Level Fort Worth Center
Wed 12:08:18 PM 33.9264 -96.5650 195° South 456 525 36,000  Level Fort Worth Center
Wed 12:09:18 PM 33.8075 -96.6036 195° South 443 510 36,000  Level Fort Worth Center
Wed 12:10:18 PM 33.6953 -96.6419 196° South 448 516 36,000  Level Fort Worth Center
Wed 12:11:18 PM 33.5597 -96.6881 196° South 460 529 36,000  Level Fort Worth Center
Wed 12:12:18 PM 33.4472 -96.7239 195° South 460 529 36,000  Level Fort Worth Center
Wed 12:13:18 PM 33.3097 -96.7697 196° South 467 537 36,000  Level Fort Worth Center
Wed 12:14:18 PM 33.1972 -96.8078 196° South 472 543 36,000  Level Fort Worth Center
Wed 12:15:18 PM 33.0575 -96.8533 195° South 472 543 36,000  Level Fort Worth Center
Wed 12:16:18 PM 32.9344 -96.8911 194° South 467 537 36,000  Level Fort Worth Center
Wed 12:17:18 PM 32.8175 -96.8794 175° South 459 528 36,000  Level Fort Worth Center
Wed 12:18:18 PM 32.6903 -96.8506 169° South 464 534 36,000  Level Fort Worth Center
Wed 12:19:18 PM 32.5522 -96.8119 167° South 464 534 36,000  Level Fort Worth Center
Wed 12:20:18 PM 32.4414 -96.7783 166° South 469 540 36,000  Level Fort Worth Center
Wed 12:21:18 PM 32.2992 -96.7375 166° South 469 540 36,000  Level Fort Worth Center
Wed 12:22:18 PM 32.1781 -96.7017 166° South 464 534 36,000  Level Fort Worth Center
Wed 12:23:18 PM 32.0525 -96.6683 167° South 464 534 36,000  Level Fort Worth Center
Wed 12:24:18 PM 31.9394 -96.6325 165° South 464 534 36,000  Level Fort Worth Center
Wed 12:25:18 PM 31.8119 -96.5967 167° South 470 541 36,000 -570 Level Fort Worth Center
Wed 12:27:17 PM 31.5647 -96.5278 167° South 459 528 34,300 -1,392 Descending Houston Center
Wed 12:28:19 PM 31.4442 -96.4872 164° South 449 517 31,800 -2,468 Descending Houston Center
Wed 12:29:21 PM 31.3247 -96.4408 162° South 445 512 29,200 -2,468 Descending Houston Center
Wed 12:30:23 PM 31.2028 -96.3950 162° South 448 516 26,700 -2,032 Descending Houston Center
Wed 12:31:25 PM 31.0822 -96.3508 163° South 448 516 25,000 -1,500 Descending Houston Center
Wed 12:32:27 PM 30.9669 -96.2725 150° Southeast 419 482 23,600 -1,984 Descending Houston Center
Wed 12:33:29 PM 30.8722 -96.1978 146° Southeast 408 470 20,900 -2,448 Descending Houston Center
Wed 12:34:32 PM 30.7794 -96.1231 145° Southeast 402 463 18,500 -2,400 Descending Houston Center
Wed 12:35:34 PM 30.6836 -96.0472 146° Southeast 386 444 15,900 -2,226 Descending Houston Center
Wed 12:36:36 PM 30.6039 -95.9833 145° Southeast 353 406 13,900 -2,000 Descending Houston Center
Wed 12:37:13 PM 30.5569 -95.9456 145° Southeast 333 383 12,600 -2,032 Descending Houston Center
Wed 12:37:38 PM 30.5278 -95.9219 145° Southeast 336 387 11,800 -1,967 Descending Houston Center
Wed 12:38:14 PM 30.4781 -95.8844 147° Southeast 332 382 10,600 -1,645 Descending Houston Center
Wed 12:38:40 PM 30.4528 -95.8628 144° Southeast 328 377 10,100 -1,672 Descending Houston Center
Wed 12:39:15 PM 30.3933 -95.8506 170° South 300 345 8,900 -1,452 Descending Houston Center
Wed 12:39:42 PM 30.3703 -95.8469 172° South 305 351 8,600 -794 Descending Houston Center
Wed 12:40:23 PM 30.3022 -95.8417 176° South 290 334 8,000 -581 Descending Houston Center
Wed 12:40:44 PM 30.2886 -95.8400 174° South 295 339 8,000  Level Houston Center
Wed 12:41:18 PM 30.2314 -95.8453 185° South 274 315 8,000  Level Houston Center
Wed 12:41:46 PM 30.1975 -95.8472 183° South 276 318 8,000  Level Houston Center
Wed 12:42:20 PM 30.1542 -95.8517 185° South 276 318 8,000 -97 Level Houston Center
Wed 12:42:48 PM 30.1217 -95.8544 184° South 275 316 7,900 -787 Descending Houston Center
Wed 12:43:21 PM 30.0856 -95.8356 156° South 236 272 7,200 -1,065 Descending Houston Center
Wed 12:43:50 PM 30.0642 -95.8186 146° Southeast 240 276 6,800 -968 Descending Houston Center
Wed 12:44:23 PM 30.0336 -95.7933 144° Southeast 222 255 6,200 -762 Descending Houston Center
Wed 12:44:53 PM 30.0158 -95.7786 144° Southeast 218 251 6,000 -400 Descending Houston Center
Wed 12:45:23 PM 29.9961 -95.7494 128° Southeast 190 219 5,800 -581 Descending Houston Center
Wed 12:45:55 PM 29.9908 -95.7261 105° East 196 226 5,400 -706 Descending Houston Center
Wed 12:46:31 PM 29.9922 -95.6825 88° East 188 216 5,000 -387 Descending Houston Center
Wed 12:46:57 PM 29.9914 -95.6631 93° East 196 226 5,000 -436 Level Houston Center
Wed 12:47:26 PM 29.9914 -95.6247 90° East 189 217 4,600 -871 Descending Houston Center
Wed 12:47:59 PM 29.9931 -95.5928 87° East 187 215 4,100 -1,065 Descending Houston Center
Wed 12:48:28 PM 29.9919 -95.5619 92° East 190 219 3,500 -1,065 Descending Houston Center
Wed 12:49:01 PM 29.9942 -95.5311 85° East 189 217 3,000 -896 Descending Houston Center
Wed 12:49:35 PM 29.9925 -95.4967 93° East 183 211 2,500 -871 Descending Houston Center
Wed 12:50:03 PM 29.9942 -95.4719 86° East 188 216 2,100 -857 Descending Houston Center

Login

Don't have an account? Register now (free) for customized features, flight alerts, and more!